Time;durP1;ratioP1;P1;durP2;ratioP2;P2;SDS_P1;SDS_P2;PMS_P1;PMS_P2;Temp;Humidity;BMP_temperature;BMP_pressure;BME280_temperature;BME280_humidity;BME280_pressure;Samples;Min_cycle;Max_cycle;Signal;HPM_P1;HPM_P2
2022/05/16 00:00:10;;;;;;;0.80;0.80;;;;;;;;;;5029476;28;20211;-62
2022/05/16 00:03:01;;;;;;;0.97;0.97;;;;;;;;;;5028936;28;20256;-61
2022/05/16 00:05:48;;;;;;;0.90;0.90;;;;;;;;;;5029735;28;20293;-62
2022/05/16 00:08:36;;;;;;;0.90;0.90;;;;;;;;;;5037352;28;20231;-61
2022/05/16 00:11:23;;;;;;;1.97;0.97;;;;;;;;;;5034882;28;20588;-60
2022/05/16 00:14:10;;;;;;;0.90;0.80;;;;;;;;;;5030587;28;20215;-61
2022/05/16 00:16:57;;;;;;;1.13;0.80;;;;;;;;;;5024608;28;20220;-59
2022/05/16 00:19:45;;;;;;;0.83;0.83;;;;;;;;;;5017605;28;20229;-62
2022/05/16 00:22:31;;;;;;;1.17;1.00;;;;;;;;;;5032256;28;20207;-62
2022/05/16 00:25:20;;;;;;;0.90;0.90;;;;;;;;;;5027795;28;20553;-61
2022/05/16 00:28:07;;;;;;;0.80;0.80;;;;;;;;;;5029090;28;20321;-62
2022/05/16 00:30:54;;;;;;;1.33;0.93;;;;;;;;;;5030090;28;20227;-61
2022/05/16 00:33:42;;;;;;;0.87;0.87;;;;;;;;;;5030148;28;20211;-61
2022/05/16 00:36:29;;;;;;;0.63;0.63;;;;;;;;;;5028094;28;20731;-62
2022/05/16 00:39:16;;;;;;;0.80;0.80;;;;;;;;;;5030961;28;20676;-61
2022/05/16 00:42:05;;;;;;;1.37;1.03;;;;;;;;;;5033965;28;20623;-61
2022/05/16 00:44:52;;;;;;;0.80;0.80;;;;;;;;;;5036533;28;20220;-61
2022/05/16 00:47:39;;;;;;;1.50;1.00;;;;;;;;;;5036729;28;20772;-62
2022/05/16 00:50:28;;;;;;;1.10;0.90;;;;;;;;;;5032679;28;20382;-62
2022/05/16 00:53:15;;;;;;;1.00;1.00;;;;;;;;;;5033800;28;20774;-62
2022/05/16 00:56:02;;;;;;;0.87;0.87;;;;;;;;;;5034975;28;20210;-61
2022/05/16 00:58:50;;;;;;;0.93;0.90;;;;;;;;;;5034940;28;20667;-62
2022/05/16 01:04:51;;;;;;;0.90;0.90;;;;;;;;;;5034884;28;20212;-62
2022/05/16 01:07:40;;;;;;;0.90;0.90;;;;;;;;;;5031315;28;20320;-61
2022/05/16 01:10:27;;;;;;;1.17;1.07;;;;;;;;;;5029506;28;20318;-61
2022/05/16 01:13:14;;;;;;;0.83;0.83;;;;;;;;;;5033439;28;20282;-61
2022/05/16 01:16:04;;;;;;;1.10;1.10;;;;;;;;;;5036465;28;20676;-61
2022/05/16 01:18:51;;;;;;;0.80;0.80;;;;;;;;;;5038055;28;20298;-61
2022/05/16 01:21:42;;;;;;;0.63;0.63;;;;;;;;;;5036587;28;20206;-61
2022/05/16 01:24:30;;;;;;;1.17;0.90;;;;;;;;;;5036792;28;20234;-61
2022/05/16 01:27:17;;;;;;;0.83;0.83;;;;;;;;;;5038625;28;20295;-62
2022/05/16 01:30:04;;;;;;;1.00;0.97;;;;;;;;;;5035905;28;20294;-61
2022/05/16 01:32:51;;;;;;;0.90;0.90;;;;;;;;;;5032484;28;20361;-61
2022/05/16 01:35:38;;;;;;;0.90;0.90;;;;;;;;;;5033824;28;20288;-62
2022/05/16 01:38:27;;;;;;;1.30;0.83;;;;;;;;;;5036027;28;20254;-62
2022/05/16 01:41:17;;;;;;;1.33;1.23;;;;;;;;;;5034755;28;20676;-61
2022/05/16 01:44:04;;;;;;;1.50;0.90;;;;;;;;;;5036661;28;20709;-61
2022/05/16 01:46:52;;;;;;;1.00;0.90;;;;;;;;;;5028585;28;20208;-61
2022/05/16 01:49:39;;;;;;;0.90;0.90;;;;;;;;;;5034394;28;20243;-60
2022/05/16 01:52:25;;;;;;;1.37;1.00;;;;;;;;;;5035532;28;20827;-65
2022/05/16 01:55:13;;;;;;;0.70;0.70;;;;;;;;;;5035531;28;20216;-61
2022/05/16 01:58:01;;;;;;;0.90;0.90;;;;;;;;;;5031931;28;20775;-62
2022/05/16 02:00:48;;;;;;;2.37;1.00;;;;;;;;;;5035101;28;20211;-61
2022/05/16 02:03:38;;;;;;;0.90;0.90;;;;;;;;;;5036749;28;20212;-61
2022/05/16 02:06:25;;;;;;;0.93;0.90;;;;;;;;;;5034896;28;20290;-62
2022/05/16 02:09:12;;;;;;;0.90;0.90;;;;;;;;;;5028801;28;20207;-60
2022/05/16 02:11:59;;;;;;;1.33;1.00;;;;;;;;;;5031921;28;20365;-61
2022/05/16 02:14:47;;;;;;;1.00;0.90;;;;;;;;;;5033349;28;20220;-61
2022/05/16 02:17:34;;;;;;;0.90;0.90;;;;;;;;;;5034355;28;20215;-62
2022/05/16 02:20:22;;;;;;;0.90;0.90;;;;;;;;;;5031162;28;20293;-61
2022/05/16 02:26:15;;;;;;;0.77;0.77;;;;;;;;;;5036804;28;20592;-61
2022/05/16 02:29:01;;;;;;;0.90;0.90;;;;;;;;;;5033396;28;20339;-60
2022/05/16 02:31:50;;;;;;;1.03;1.00;;;;;;;;;;5034104;28;20262;-61
2022/05/16 02:34:37;;;;;;;0.90;0.90;;;;;;;;;;5038032;28;20461;-61
2022/05/16 02:37:24;;;;;;;1.10;1.00;;;;;;;;;;5035128;28;20350;-61
2022/05/16 02:40:12;;;;;;;1.30;0.90;;;;;;;;;;5036439;28;20204;-61
2022/05/16 02:42:59;;;;;;;0.93;0.90;;;;;;;;;;5030867;28;20258;-61
2022/05/16 02:45:46;;;;;;;0.80;0.80;;;;;;;;;;5030782;28;20210;-61
2022/05/16 02:48:34;;;;;;;0.90;0.90;;;;;;;;;;5033135;28;20208;-61
2022/05/16 02:51:21;;;;;;;1.17;1.07;;;;;;;;;;5012016;28;20281;-61
2022/05/16 02:54:08;;;;;;;0.87;0.87;;;;;;;;;;5010088;28;20351;-62
2022/05/16 02:56:55;;;;;;;0.80;0.80;;;;;;;;;;5015434;28;20822;-61
2022/05/16 02:59:42;;;;;;;0.83;0.83;;;;;;;;;;5014688;28;20335;-61
2022/05/16 03:02:29;;;;;;;0.80;0.77;;;;;;;;;;5012947;28;20283;-61
2022/05/16 03:05:17;;;;;;;0.83;0.83;;;;;;;;;;5018464;28;20359;-61
2022/05/16 03:08:05;;;;;;;0.87;0.87;;;;;;;;;;5016890;28;20233;-62
2022/05/16 03:10:52;;;;;;;1.10;1.00;;;;;;;;;;5013623;28;20310;-61
2022/05/16 03:13:39;;;;;;;0.97;0.80;;;;;;;;;;5013951;28;20860;-62
2022/05/16 03:16:26;;;;;;;0.80;0.80;;;;;;;;;;5012226;28;20292;-61
2022/05/16 03:19:14;;;;;;;1.47;0.83;;;;;;;;;;5011647;28;20686;-61
2022/05/16 03:22:02;;;;;;;1.30;1.20;;;;;;;;;;5011184;28;20206;-61
2022/05/16 03:24:49;;;;;;;1.20;1.10;;;;;;;;;;5011479;28;20274;-61
2022/05/16 03:27:36;;;;;;;0.90;0.80;;;;;;;;;;5011554;28;20216;-61
2022/05/16 03:30:23;;;;;;;0.93;0.70;;;;;;;;;;5011298;28;20291;-61
2022/05/16 03:33:10;;;;;;;0.80;0.80;;;;;;;;;;5012995;28;20344;-61
2022/05/16 03:35:58;;;;;;;1.07;0.87;;;;;;;;;;5013764;28;20216;-62
2022/05/16 03:41:50;;;;;;;1.03;1.03;;;;;;;;;;5015730;28;20207;-61
2022/05/16 03:44:37;;;;;;;1.00;0.90;;;;;;;;;;5015710;28;20219;-62
2022/05/16 03:47:24;;;;;;;1.10;1.10;;;;;;;;;;5016091;28;20248;-61
2022/05/16 03:50:12;;;;;;;1.00;1.00;;;;;;;;;;5010777;28;20331;-62
2022/05/16 03:52:59;;;;;;;0.80;0.80;;;;;;;;;;5012930;28;20304;-61
2022/05/16 03:55:48;;;;;;;0.80;0.80;;;;;;;;;;5011810;28;20213;-61
2022/05/16 03:58:35;;;;;;;0.80;0.80;;;;;;;;;;5010317;28;20245;-61
2022/05/16 04:01:23;;;;;;;1.13;1.03;;;;;;;;;;5009160;28;20686;-62
2022/05/16 04:04:10;;;;;;;0.53;0.53;;;;;;;;;;5011256;28;20226;-61
2022/05/16 04:06:57;;;;;;;1.00;0.90;;;;;;;;;;5014476;28;20213;-61
2022/05/16 04:09:43;;;;;;;0.90;0.87;;;;;;;;;;5017506;28;20295;-61
2022/05/16 04:12:32;;;;;;;0.73;0.73;;;;;;;;;;5017281;28;20324;-61
2022/05/16 04:15:21;;;;;;;1.37;1.00;;;;;;;;;;5012532;28;20248;-61
2022/05/16 04:18:08;;;;;;;1.13;0.80;;;;;;;;;;5011196;28;20209;-61
2022/05/16 04:20:55;;;;;;;0.90;0.90;;;;;;;;;;5014380;28;20206;-60
2022/05/16 04:23:42;;;;;;;0.80;0.80;;;;;;;;;;5014165;28;20300;-61
2022/05/16 04:26:29;;;;;;;0.87;0.83;;;;;;;;;;5012766;28;20307;-61
2022/05/16 04:29:17;;;;;;;1.00;1.00;;;;;;;;;;5015004;28;20312;-60
2022/05/16 04:32:05;;;;;;;1.20;1.07;;;;;;;;;;5011307;28;20711;-60
2022/05/16 04:34:52;;;;;;;0.90;0.90;;;;;;;;;;5012990;28;20260;-61
2022/05/16 04:37:39;;;;;;;1.10;1.07;;;;;;;;;;5014988;28;20367;-62
2022/05/16 04:40:26;;;;;;;0.80;0.80;;;;;;;;;;5012902;28;20248;-61
2022/05/16 04:43:12;;;;;;;0.80;0.80;;;;;;;;;;5016153;28;20709;-61
2022/05/16 04:46:05;;;;;;;1.07;1.03;;;;;;;;;;5019546;28;20202;-62
2022/05/16 04:48:52;;;;;;;0.80;0.80;;;;;;;;;;5023594;28;20676;-61
2022/05/16 04:51:39;;;;;;;1.13;0.80;;;;;;;;;;5038674;28;20229;-61
2022/05/16 04:54:26;;;;;;;0.97;0.97;;;;;;;;;;5036971;28;20224;-61
2022/05/16 04:57:13;;;;;;;0.80;0.80;;;;;;;;;;5037838;28;20212;-61
2022/05/16 05:00:00;;;;;;;0.97;0.97;;;;;;;;;;5033599;28;20217;-60
2022/05/16 05:02:49;;;;;;;0.80;0.80;;;;;;;;;;5034034;28;20270;-62
2022/05/16 05:05:36;;;;;;;0.90;0.80;;;;;;;;;;5034356;28;20244;-61
2022/05/16 05:08:23;;;;;;;1.13;1.03;;;;;;;;;;5033041;28;20319;-61
2022/05/16 05:17:18;;;;;;;1.10;0.90;;;;;;;;;;5035413;28;20631;-62
2022/05/16 05:20:13;;;;;;;1.00;0.90;;;;;;;;;;5039093;28;20290;-61
2022/05/16 05:23:00;;;;;;;1.03;1.00;;;;;;;;;;5039544;28;20406;-65
2022/05/16 05:25:47;;;;;;;1.10;0.90;;;;;;;;;;5034456;28;20780;-61
2022/05/16 05:28:35;;;;;;;1.33;1.10;;;;;;;;;;5036695;28;20290;-61
2022/05/16 05:31:25;;;;;;;1.03;0.93;;;;;;;;;;5036510;28;20266;-61
2022/05/16 05:34:13;;;;;;;1.40;1.00;;;;;;;;;;5036783;28;20209;-60
2022/05/16 05:37:01;;;;;;;1.27;1.10;;;;;;;;;;5034461;28;20912;-61
2022/05/16 05:39:48;;;;;;;1.00;1.00;;;;;;;;;;5034777;28;20218;-61
2022/05/16 05:42:36;;;;;;;0.90;0.90;;;;;;;;;;5032390;28;20210;-61
2022/05/16 05:45:23;;;;;;;1.10;0.90;;;;;;;;;;5033763;28;20212;-61
2022/05/16 05:48:10;;;;;;;1.20;1.10;;;;;;;;;;5034445;28;20243;-61
2022/05/16 05:50:57;;;;;;;1.40;1.30;;;;;;;;;;5017884;28;20582;-61
2022/05/16 05:53:45;;;;;;;1.43;1.20;;;;;;;;;;5015688;28;20235;-62
2022/05/16 05:56:33;;;;;;;0.80;0.80;;;;;;;;;;5012784;28;20289;-61
2022/05/16 05:59:20;;;;;;;1.45;1.10;;;;;;;;;;5010706;28;20246;-61
2022/05/16 06:02:09;;;;;;;1.20;1.10;;;;;;;;;;5014334;28;20288;-62
2022/05/16 06:04:55;;;;;;;2.23;1.10;;;;;;;;;;5012071;28;20216;-61
2022/05/16 06:07:42;;;;;;;0.95;0.93;;;;;;;;;;5016126;28;21203;-61
2022/05/16 06:10:31;;;;;;;1.38;1.20;;;;;;;;;;5019001;28;20337;-61
2022/05/16 06:13:19;;;;;;;0.98;0.90;;;;;;;;;;5017358;28;20239;-61
2022/05/16 06:16:06;;;;;;;0.90;0.90;;;;;;;;;;5018936;28;20206;-62
2022/05/16 06:18:53;;;;;;;1.42;1.33;;;;;;;;;;5020863;28;20683;-61
2022/05/16 06:21:40;;;;;;;0.80;0.80;;;;;;;;;;5017149;28;20299;-61
2022/05/16 06:27:33;;;;;;;1.02;0.98;;;;;;;;;;5017075;28;20205;-61
2022/05/16 06:30:20;;;;;;;0.88;0.88;;;;;;;;;;5011990;28;20236;-60
2022/05/16 06:33:07;;;;;;;0.80;0.80;;;;;;;;;;5012528;28;20225;-60
2022/05/16 06:35:54;;;;;;;0.90;0.90;;;;;;;;;;5008656;28;20201;-59
2022/05/16 06:38:41;;;;;;;1.13;1.02;;;;;;;;;;5009552;28;20232;-60
2022/05/16 06:41:28;;;;;;;0.90;0.90;;;;;;;;;;5016127;28;20386;-60
2022/05/16 06:44:16;;;;;;;0.80;0.80;;;;;;;;;;5017803;28;20320;-62
2022/05/16 06:47:04;;;;;;;1.27;1.10;;;;;;;;;;5011813;28;20295;-59
2022/05/16 06:49:51;;;;;;;0.95;0.90;;;;;;;;;;5025110;28;20830;-59
2022/05/16 06:52:38;;;;;;;0.60;0.60;;;;;;;;;;5030714;28;20237;-59
2022/05/16 06:55:25;;;;;;;0.60;0.60;;;;;;;;;;5032025;28;20216;-58
2022/05/16 06:58:12;;;;;;;0.80;0.80;;;;;;;;;;5034715;28;20338;-59
2022/05/16 07:01:00;;;;;;;0.98;0.98;;;;;;;;;;5032672;28;20334;-59
2022/05/16 07:03:47;;;;;;;0.98;0.93;;;;;;;;;;5034651;28;20240;-59
2022/05/16 07:06:34;;;;;;;0.90;0.90;;;;;;;;;;5033969;28;20403;-59
2022/05/16 07:09:21;;;;;;;1.00;1.00;;;;;;;;;;5034561;28;20281;-60
2022/05/16 07:12:09;;;;;;;0.90;0.90;;;;;;;;;;5035713;28;21525;-58
2022/05/16 07:14:56;;;;;;;0.57;0.57;;;;;;;;;;5033384;28;20250;-59
2022/05/16 07:17:45;;;;;;;0.90;0.70;;;;;;;;;;5031900;28;20279;-59
2022/05/16 07:20:31;;;;;;;0.75;0.75;;;;;;;;;;5031026;28;20311;-59
2022/05/16 07:23:18;;;;;;;0.60;0.60;;;;;;;;;;5032025;28;20239;-58
2022/05/16 07:29:09;;;;;;;0.88;0.88;;;;;;;;;;4999141;28;20219;-62
2022/05/16 07:31:57;;;;;;;0.70;0.70;;;;;;;;;;5035290;28;20362;-62
2022/05/16 07:34:45;;;;;;;1.20;0.90;;;;;;;;;;5033571;28;20298;-62
2022/05/16 07:37:32;;;;;;;0.88;0.70;;;;;;;;;;5036019;28;20651;-61
2022/05/16 07:40:19;;;;;;;0.55;0.55;;;;;;;;;;5031572;28;20235;-61
2022/05/16 07:43:06;;;;;;;0.80;0.80;;;;;;;;;;5033103;28;20288;-61
2022/05/16 07:45:53;;;;;;;0.75;0.75;;;;;;;;;;5033704;28;20295;-61
2022/05/16 07:48:42;;;;;;;1.00;1.00;;;;;;;;;;5032467;28;20685;-61
2022/05/16 07:51:30;;;;;;;1.00;0.82;;;;;;;;;;5032695;28;20213;-60
2022/05/16 07:54:17;;;;;;;0.60;0.60;;;;;;;;;;5031262;28;20716;-61
2022/05/16 07:57:05;;;;;;;0.52;0.52;;;;;;;;;;5028851;28;20296;-61
2022/05/16 07:59:52;;;;;;;0.73;0.73;;;;;;;;;;5029704;28;20295;-61
2022/05/16 08:02:39;;;;;;;0.43;0.43;;;;;;;;;;5034184;28;20719;-60
2022/05/16 08:05:26;;;;;;;0.57;0.57;;;;;;;;;;5036453;28;20203;-60
2022/05/16 08:11:19;;;;;;;0.90;0.80;;;;;;;;;;5036671;28;20244;-60
2022/05/16 08:14:06;;;;;;;0.63;0.63;;;;;;;;;;5036643;28;20367;-60
2022/05/16 08:16:53;;;;;;;0.60;0.60;;;;;;;;;;5038121;28;20299;-61
2022/05/16 08:19:40;;;;;;;0.60;0.60;;;;;;;;;;5034257;28;20232;-58
2022/05/16 08:22:30;;;;;;;0.57;0.57;;;;;;;;;;5035614;28;20296;-60
2022/05/16 08:25:18;;;;;;;0.80;0.80;;;;;;;;;;5036341;28;20314;-60
2022/05/16 08:28:05;;;;;;;0.73;0.70;;;;;;;;;;5036561;28;20212;-60
2022/05/16 08:30:52;;;;;;;0.50;0.50;;;;;;;;;;5033553;28;20311;-60
2022/05/16 08:33:41;;;;;;;0.30;0.30;;;;;;;;;;5032937;28;20279;-60
2022/05/16 08:42:49;;;;;;;0.68;0.68;;;;;;;;;;5036277;28;20208;-59
2022/05/16 08:45:39;;;;;;;1.13;0.55;;;;;;;;;;5037657;28;20611;-57
2022/05/16 08:48:33;;;;;;;0.60;0.60;;;;;;;;;;5037881;28;20689;-59
2022/05/16 08:51:23;;;;;;;0.63;0.63;;;;;;;;;;5038165;28;20626;-59
2022/05/16 08:54:14;;;;;;;0.50;0.50;;;;;;;;;;5034209;28;20416;-60
2022/05/16 08:57:04;;;;;;;1.00;0.60;;;;;;;;;;5038146;28;20345;-59
2022/05/16 08:59:59;;;;;;;0.65;0.65;;;;;;;;;;5034705;28;20841;-61
2022/05/16 09:02:49;;;;;;;0.40;0.40;;;;;;;;;;5033282;28;20274;-61
2022/05/16 09:05:39;;;;;;;0.40;0.40;;;;;;;;;;5032930;28;20343;-59
2022/05/16 09:08:36;;;;;;;0.52;0.52;;;;;;;;;;5031796;28;20251;-60
2022/05/16 09:11:30;;;;;;;0.43;0.43;;;;;;;;;;5029291;28;20291;-60
2022/05/16 09:14:28;;;;;;;0.65;0.65;;;;;;;;;;5035220;28;20291;-60
2022/05/16 09:17:23;;;;;;;0.82;0.50;;;;;;;;;;5035009;28;20322;-60
2022/05/16 09:20:21;;;;;;;0.45;0.40;;;;;;;;;;5036265;28;20294;-59
2022/05/16 09:23:15;;;;;;;0.60;0.60;;;;;;;;;;5033211;28;20244;-60
2022/05/16 09:26:10;;;;;;;0.75;0.63;;;;;;;;;;5036418;28;20210;-61
2022/05/16 09:29:00;;;;;;;0.35;0.35;;;;;;;;;;5036589;28;20207;-61
2022/05/16 09:31:50;;;;;;;0.55;0.55;;;;;;;;;;5034399;28;20263;-62
2022/05/16 09:34:38;;;;;;;0.55;0.55;;;;;;;;;;5035013;28;20219;-61
2022/05/16 09:37:25;;;;;;;0.40;0.40;;;;;;;;;;5030167;28;20230;-60
2022/05/16 09:40:12;;;;;;;1.10;0.30;;;;;;;;;;5032900;28;20265;-61
2022/05/16 09:43:06;;;;;;;0.47;0.47;;;;;;;;;;5030246;28;20261;-61
2022/05/16 09:45:57;;;;;;;0.40;0.40;;;;;;;;;;5027799;28;20216;-61
2022/05/16 09:48:44;;;;;;;0.40;0.40;;;;;;;;;;5033081;28;20664;-61
2022/05/16 09:51:40;;;;;;;0.55;0.55;;;;;;;;;;5033418;28;20668;-61
2022/05/16 09:54:30;;;;;;;0.43;0.43;;;;;;;;;;5034558;28;20274;-61
2022/05/16 09:57:20;;;;;;;0.50;0.40;;;;;;;;;;5036124;28;20216;-61
2022/05/16 10:00:17;;;;;;;0.30;0.30;;;;;;;;;;5035587;28;20212;-61
2022/05/16 10:03:16;;;;;;;0.50;0.50;;;;;;;;;;5033360;28;20203;-62
2022/05/16 10:06:06;;;;;;;0.30;0.30;;;;;;;;;;5035325;28;20209;-61
2022/05/16 10:08:54;;;;;;;0.95;0.60;;;;;;;;;;5032881;28;20279;-60
2022/05/16 10:11:45;;;;;;;0.50;0.50;;;;;;;;;;5033429;28;20296;-60
2022/05/16 10:14:33;;;;;;;0.50;0.50;;;;;;;;;;5029971;28;20323;-60
2022/05/16 10:17:28;;;;;;;0.60;0.60;;;;;;;;;;5029763;28;20703;-61
2022/05/16 10:20:20;;;;;;;0.70;0.50;;;;;;;;;;5028840;28;20255;-60
2022/05/16 10:23:13;;;;;;;0.52;0.52;;;;;;;;;;5037180;28;20245;-60
2022/05/16 10:26:05;;;;;;;0.50;0.50;;;;;;;;;;5032153;28;20667;-60
2022/05/16 10:28:55;;;;;;;0.47;0.47;;;;;;;;;;5038414;28;20208;-60
2022/05/16 10:34:55;;;;;;;0.55;0.55;;;;;;;;;;5032326;28;20696;-60
2022/05/16 10:37:45;;;;;;;0.82;0.40;;;;;;;;;;5037646;28;20208;-60
2022/05/16 10:40:35;;;;;;;0.52;0.50;;;;;;;;;;5034424;28;20213;-60
2022/05/16 10:43:40;;;;;;;0.60;0.60;;;;;;;;;;5030919;28;20214;-61
2022/05/16 10:46:38;;;;;;;0.30;0.30;;;;;;;;;;5098484;27;20539;-62
2022/05/16 10:49:34;;;;;;;0.50;0.50;;;;;;;;;;5087826;28;20212;-61
2022/05/16 10:52:33;;;;;;;1.38;0.65;;;;;;;;;;5089243;28;20210;-60
2022/05/16 10:55:21;;;;;;;0.68;0.60;;;;;;;;;;5087899;28;20290;-60
2022/05/16 10:58:29;;;;;;;0.77;0.77;;;;;;;;;;5082469;28;20203;-62
2022/05/16 11:01:21;;;;;;;1.20;0.73;;;;;;;;;;5121234;27;20617;-62
2022/05/16 11:04:44;;;;;;;1.15;1.05;;;;;;;;;;5123791;27;20290;-60
2022/05/16 11:07:42;;;;;;;1.30;0.90;;;;;;;;;;5125672;27;20284;-60
2022/05/16 11:10:35;;;;;;;1.15;0.90;;;;;;;;;;5124030;27;20735;-62
2022/05/16 11:13:35;;;;;;;0.50;0.50;;;;;;;;;;5125023;27;20328;-59
2022/05/16 11:16:27;;;;;;;2.00;0.98;;;;;;;;;;5127542;27;20568;-60
2022/05/16 11:19:23;;;;;;;1.45;1.00;;;;;;;;;;5132372;27;20205;-62
2022/05/16 11:22:18;;;;;;;1.10;0.90;;;;;;;;;;5131347;27;20331;-62
2022/05/16 11:25:13;;;;;;;1.10;0.98;;;;;;;;;;5135076;27;20307;-62
2022/05/16 11:28:04;;;;;;;0.70;0.70;;;;;;;;;;5136580;27;20207;-62
2022/05/16 11:30:55;;;;;;;1.17;1.08;;;;;;;;;;5124521;27;20357;-62
2022/05/16 11:33:48;;;;;;;0.93;0.70;;;;;;;;;;5123439;27;20241;-60
2022/05/16 11:36:45;;;;;;;1.17;0.88;;;;;;;;;;5123601;27;20577;-60
2022/05/16 11:39:38;;;;;;;1.02;0.77;;;;;;;;;;5121339;27;20294;-60
2022/05/16 11:42:33;;;;;;;1.42;1.00;;;;;;;;;;5121814;27;20202;-60
2022/05/16 11:45:32;;;;;;;0.88;0.80;;;;;;;;;;5120461;27;20248;-60
2022/05/16 11:48:26;;;;;;;1.90;0.70;;;;;;;;;;5125300;27;20288;-62
2022/05/16 11:51:21;;;;;;;1.55;0.90;;;;;;;;;;5123903;27;20259;-62
2022/05/16 11:54:09;;;;;;;1.08;0.70;;;;;;;;;;5130731;27;20225;-62
2022/05/16 12:00:33;;;;;;;0.93;0.77;;;;;;;;;;5118398;27;20202;-62
2022/05/16 12:03:21;;;;;;;1.15;0.70;;;;;;;;;;5117714;27;20622;-62
2022/05/16 12:06:25;;;;;;;0.80;0.75;;;;;;;;;;5115812;27;20295;-62
2022/05/16 12:09:19;;;;;;;0.90;0.75;;;;;;;;;;5112193;27;20213;-62
2022/05/16 12:12:12;;;;;;;0.70;0.70;;;;;;;;;;5113365;27;20258;-62
2022/05/16 12:15:30;;;;;;;0.70;0.60;;;;;;;;;;5108698;27;20264;-61
2022/05/16 12:18:34;;;;;;;0.63;0.63;;;;;;;;;;5105077;27;20205;-62
2022/05/16 12:21:27;;;;;;;0.60;0.60;;;;;;;;;;5108417;27;20284;-62
2022/05/16 12:24:42;;;;;;;1.05;0.50;;;;;;;;;;5109795;27;20209;-62
2022/05/16 12:27:32;;;;;;;1.45;0.55;;;;;;;;;;5107760;27;20283;-62
2022/05/16 12:30:44;;;;;;;0.50;0.50;;;;;;;;;;5112684;27;20965;-61
2022/05/16 12:33:51;;;;;;;0.65;0.65;;;;;;;;;;5115939;27;20293;-62
2022/05/16 12:36:39;;;;;;;0.50;0.50;;;;;;;;;;5119596;27;20724;-61
2022/05/16 12:39:31;;;;;;;0.95;0.70;;;;;;;;;;5106765;27;20202;-62
2022/05/16 12:42:40;;;;;;;0.40;0.40;;;;;;;;;;5112058;27;20315;-61
2022/05/16 12:46:05;;;;;;;0.73;0.70;;;;;;;;;;5111179;27;20274;-62
2022/05/16 12:49:06;;;;;;;0.60;0.60;;;;;;;;;;5089927;27;20232;-62
2022/05/16 12:51:56;;;;;;;0.40;0.40;;;;;;;;;;5108346;27;20236;-61
2022/05/16 12:54:57;;;;;;;0.50;0.50;;;;;;;;;;5111093;27;20225;-61
2022/05/16 12:58:06;;;;;;;0.50;0.50;;;;;;;;;;5107118;27;20205;-62
2022/05/16 13:01:02;;;;;;;0.50;0.50;;;;;;;;;;5111015;27;20239;-62
2022/05/16 13:03:56;;;;;;;0.55;0.55;;;;;;;;;;5110508;27;20289;-62
2022/05/16 13:06:56;;;;;;;0.47;0.47;;;;;;;;;;5112465;27;20723;-62
2022/05/16 13:09:54;;;;;;;0.40;0.40;;;;;;;;;;5115978;27;20332;-62
2022/05/16 13:12:51;;;;;;;0.32;0.32;;;;;;;;;;5107365;27;20331;-61
2022/05/16 13:15:45;;;;;;;0.30;0.30;;;;;;;;;;5109344;27;20294;-60
2022/05/16 13:18:35;;;;;;;0.35;0.30;;;;;;;;;;5108802;27;20701;-62
2022/05/16 13:21:34;;;;;;;0.40;0.40;;;;;;;;;;5108679;27;20262;-61
2022/05/16 13:24:24;;;;;;;0.47;0.40;;;;;;;;;;5109066;27;20200;-62
2022/05/16 13:30:25;;;;;;;1.45;0.50;;;;;;;;;;5108920;27;20208;-62
2022/05/16 13:33:24;;;;;;;0.50;0.50;;;;;;;;;;5111014;27;20209;-62
2022/05/16 13:36:16;;;;;;;0.40;0.40;;;;;;;;;;5115224;27;20199;-62
2022/05/16 13:39:11;;;;;;;0.50;0.50;;;;;;;;;;5116984;27;20295;-62
2022/05/16 13:42:01;;;;;;;0.40;0.40;;;;;;;;;;5116185;27;20855;-61
2022/05/16 13:44:49;;;;;;;0.40;0.40;;;;;;;;;;5119137;27;20371;-61
2022/05/16 13:47:41;;;;;;;0.30;0.30;;;;;;;;;;5110863;27;20255;-61
2022/05/16 13:50:30;;;;;;;0.40;0.40;;;;;;;;;;5110285;27;20214;-62
2022/05/16 13:53:19;;;;;;;0.40;0.40;;;;;;;;;;5110277;27;20319;-62
2022/05/16 13:56:06;;;;;;;0.40;0.40;;;;;;;;;;5107886;27;20210;-63
2022/05/16 13:58:54;;;;;;;1.25;0.68;;;;;;;;;;5106332;27;20540;-62
2022/05/16 14:01:51;;;;;;;0.45;0.45;;;;;;;;;;5106718;27;20286;-62
2022/05/16 14:04:42;;;;;;;0.40;0.40;;;;;;;;;;5110549;27;20212;-62
2022/05/16 14:07:34;;;;;;;0.20;0.20;;;;;;;;;;5107573;27;20290;-61
2022/05/16 14:10:23;;;;;;;0.47;0.47;;;;;;;;;;5108013;27;20212;-61
2022/05/16 14:13:15;;;;;;;0.17;0.17;;;;;;;;;;5112682;27;20343;-62
2022/05/16 14:16:07;;;;;;;0.40;0.40;;;;;;;;;;5111439;27;20203;-62
2022/05/16 14:19:03;;;;;;;0.27;0.27;;;;;;;;;;5116196;27;20206;-61
2022/05/16 14:21:54;;;;;;;0.50;0.43;;;;;;;;;;5110568;27;20258;-62
2022/05/16 14:24:44;;;;;;;0.30;0.30;;;;;;;;;;5108022;27;20304;-61
2022/05/16 14:27:37;;;;;;;0.57;0.50;;;;;;;;;;5106466;27;20311;-60
2022/05/16 14:30:27;;;;;;;0.30;0.30;;;;;;;;;;5110637;27;20210;-62
2022/05/16 14:33:16;;;;;;;0.30;0.30;;;;;;;;;;5106858;28;20210;-62
2022/05/16 14:36:07;;;;;;;0.30;0.30;;;;;;;;;;5108260;28;20217;-62
2022/05/16 14:38:55;;;;;;;0.23;0.23;;;;;;;;;;5104447;27;20206;-62
2022/05/16 14:42:06;;;;;;;0.50;0.50;;;;;;;;;;5113713;27;20206;-62
2022/05/16 14:44:56;;;;;;;0.20;0.20;;;;;;;;;;5112225;28;20238;-62
2022/05/16 14:47:46;;;;;;;0.40;0.40;;;;;;;;;;5112863;28;20206;-63
2022/05/16 14:50:34;;;;;;;0.40;0.40;;;;;;;;;;5115950;28;20216;-61
2022/05/16 14:53:21;;;;;;;0.30;0.27;;;;;;;;;;5112277;28;20695;-62
2022/05/16 14:56:09;;;;;;;0.30;0.30;;;;;;;;;;5110998;28;20225;-63
2022/05/16 14:58:56;;;;;;;0.30;0.20;;;;;;;;;;5104297;28;20581;-60
2022/05/16 15:04:49;;;;;;;0.83;0.40;;;;;;;;;;5111514;28;20211;-62
2022/05/16 15:07:40;;;;;;;0.20;0.20;;;;;;;;;;5109217;28;20696;-62
2022/05/16 15:10:27;;;;;;;0.73;0.30;;;;;;;;;;5108491;28;20291;-62
2022/05/16 15:13:14;;;;;;;0.30;0.30;;;;;;;;;;5108170;28;20240;-61
2022/05/16 15:16:01;;;;;;;0.30;0.30;;;;;;;;;;5103503;28;20234;-62
2022/05/16 15:18:49;;;;;;;0.20;0.20;;;;;;;;;;5113682;28;20687;-62
2022/05/16 15:21:38;;;;;;;0.20;0.20;;;;;;;;;;5108376;28;20279;-62
2022/05/16 15:24:30;;;;;;;0.20;0.20;;;;;;;;;;5114690;28;20272;-63
2022/05/16 15:27:17;;;;;;;0.20;0.20;;;;;;;;;;5115970;28;20230;-62
2022/05/16 15:30:04;;;;;;;0.73;0.20;;;;;;;;;;5110776;28;20604;-61
2022/05/16 15:32:51;;;;;;;0.20;0.20;;;;;;;;;;5112495;27;20678;-62
2022/05/16 15:35:41;;;;;;;0.20;0.20;;;;;;;;;;5115713;27;20243;-62
2022/05/16 15:38:28;;;;;;;0.20;0.20;;;;;;;;;;5109358;27;20316;-62
2022/05/16 15:41:16;;;;;;;0.43;0.30;;;;;;;;;;5112629;27;20286;-62
2022/05/16 15:44:04;;;;;;;0.13;0.10;;;;;;;;;;5117113;27;20243;-62
2022/05/16 15:46:51;;;;;;;0.27;0.27;;;;;;;;;;5109736;27;20591;-63
2022/05/16 15:49:38;;;;;;;0.30;0.30;;;;;;;;;;5111475;27;20286;-63
2022/05/16 15:52:25;;;;;;;0.10;0.10;;;;;;;;;;5113193;27;20659;-62
2022/05/16 15:55:14;;;;;;;0.27;0.27;;;;;;;;;;5114956;27;20258;-62
2022/05/16 15:58:03;;;;;;;0.20;0.20;;;;;;;;;;5112272;27;20969;-62
2022/05/16 16:00:50;;;;;;;0.20;0.20;;;;;;;;;;5115177;27;20207;-62
2022/05/16 16:09:48;;;;;;;0.23;0.23;;;;;;;;;;5117337;27;20195;-62
2022/05/16 16:12:35;;;;;;;0.20;0.20;;;;;;;;;;5113293;27;20320;-62
2022/05/16 16:15:24;;;;;;;0.30;0.20;;;;;;;;;;5114488;27;20258;-62
2022/05/16 16:18:13;;;;;;;0.20;0.20;;;;;;;;;;5110037;27;20655;-62
2022/05/16 16:21:00;;;;;;;0.50;0.33;;;;;;;;;;5108867;27;20217;-60
2022/05/16 16:23:47;;;;;;;0.23;0.20;;;;;;;;;;5112273;27;20218;-61
2022/05/16 16:26:34;;;;;;;0.33;0.33;;;;;;;;;;5110846;27;20628;-62
2022/05/16 16:29:23;;;;;;;0.13;0.13;;;;;;;;;;5113433;27;20209;-61
2022/05/16 16:32:11;;;;;;;0.20;0.20;;;;;;;;;;5116842;27;20208;-62
2022/05/16 16:34:58;;;;;;;0.20;0.20;;;;;;;;;;5113671;27;20289;-62
2022/05/16 16:37:45;;;;;;;0.30;0.30;;;;;;;;;;5113352;27;20226;-62
2022/05/16 16:40:32;;;;;;;0.20;0.20;;;;;;;;;;5107695;27;20204;-61
2022/05/16 16:43:28;;;;;;;0.30;0.30;;;;;;;;;;5112540;27;20640;-62
2022/05/16 16:46:17;;;;;;;0.20;0.20;;;;;;;;;;5108375;27;20352;-61
2022/05/16 16:49:06;;;;;;;0.30;0.30;;;;;;;;;;5113913;27;21039;-62
2022/05/16 16:58:01;;;;;;;0.20;0.20;;;;;;;;;;5109020;27;20200;-61
2022/05/16 17:00:48;;;;;;;0.20;0.20;;;;;;;;;;5110052;27;20345;-61
2022/05/16 17:03:35;;;;;;;0.30;0.30;;;;;;;;;;5111008;27;20264;-61
2022/05/16 17:06:24;;;;;;;0.20;0.20;;;;;;;;;;5111706;27;20220;-62
2022/05/16 17:09:11;;;;;;;0.20;0.20;;;;;;;;;;5115343;27;20207;-62
2022/05/16 17:11:59;;;;;;;0.30;0.30;;;;;;;;;;5117031;27;20204;-62
2022/05/16 17:14:46;;;;;;;0.30;0.30;;;;;;;;;;5112324;27;20346;-62
2022/05/16 17:17:33;;;;;;;0.27;0.27;;;;;;;;;;5109547;27;20287;-62
2022/05/16 17:20:20;;;;;;;0.20;0.20;;;;;;;;;;5109154;27;20321;-60
2022/05/16 17:23:14;;;;;;;0.20;0.20;;;;;;;;;;5111882;27;20288;-62
2022/05/16 17:26:01;;;;;;;0.37;0.37;;;;;;;;;;5108698;27;20241;-62
2022/05/16 17:28:50;;;;;;;0.20;0.20;;;;;;;;;;5107477;27;20300;-62
2022/05/16 17:31:37;;;;;;;0.30;0.30;;;;;;;;;;5108217;27;20212;-62
2022/05/16 17:34:25;;;;;;;0.20;0.20;;;;;;;;;;5109394;27;20674;-62
2022/05/16 17:37:14;;;;;;;0.40;0.40;;;;;;;;;;5106806;27;20684;-61
2022/05/16 17:40:03;;;;;;;0.30;0.30;;;;;;;;;;5114713;27;20201;-61
2022/05/16 17:42:50;;;;;;;0.30;0.30;;;;;;;;;;5111360;27;20215;-60
2022/05/16 17:45:38;;;;;;;0.40;0.20;;;;;;;;;;5107454;27;20235;-60
2022/05/16 17:48:25;;;;;;;0.20;0.20;;;;;;;;;;5110068;27;20246;-62
2022/05/16 17:51:20;;;;;;;0.20;0.20;;;;;;;;;;5109254;27;20269;-61
2022/05/16 17:54:10;;;;;;;0.20;0.20;;;;;;;;;;5109173;27;20669;-61